createdAt,value
2018-11-01T00:00:17.252Z,5.10
2018-11-01T00:02:45.860Z,5.10
2018-11-01T00:05:15.141Z,5.00
2018-11-01T00:07:44.157Z,5.00
2018-11-01T00:10:12.958Z,5.00
2018-11-01T00:12:42.662Z,4.90
2018-11-01T00:15:13.304Z,4.80
2018-11-01T00:17:41.913Z,4.90
2018-11-01T00:20:12.085Z,4.90
2018-11-01T00:22:41.092Z,4.90
2018-11-01T00:25:11.123Z,5.00
2018-11-01T00:27:40.138Z,5.00
2018-11-01T00:30:09.412Z,5.30
2018-11-01T00:32:38.689Z,5.50
2018-11-01T00:35:07.628Z,5.60
2018-11-01T00:37:36.179Z,5.70
2018-11-01T00:40:06.931Z,5.80
2018-11-01T00:42:35.504Z,5.80
2018-11-01T00:45:04.162Z,5.90
2018-11-01T00:47:32.687Z,5.90
2018-11-01T00:50:01.233Z,5.90
2018-11-01T00:52:29.754Z,5.90
2018-11-01T00:54:58.307Z,6.00
2018-11-01T00:57:26.833Z,6.00
2018-11-01T00:59:55.368Z,6.00
2018-11-01T01:02:23.910Z,6.00
2018-11-01T01:04:52.432Z,5.90
2018-11-01T01:07:20.966Z,5.90
2018-11-01T01:09:49.485Z,5.90
2018-11-01T01:12:18.023Z,5.90
2018-11-01T01:14:46.632Z,5.80
2018-11-01T01:17:15.188Z,5.70
2018-11-01T01:19:43.721Z,5.70
2018-11-01T01:22:12.253Z,5.70
2018-11-01T01:24:40.787Z,5.80
2018-11-01T01:27:09.333Z,5.90
2018-11-01T01:29:37.884Z,5.90
2018-11-01T01:32:06.449Z,5.80
2018-11-01T01:34:35.054Z,5.80
2018-11-01T01:37:03.499Z,5.70
2018-11-01T01:39:32.056Z,5.70
2018-11-01T01:42:00.650Z,5.70
2018-11-01T01:44:29.169Z,5.70
2018-11-01T01:46:57.755Z,5.70
2018-11-01T01:49:26.658Z,5.70
2018-11-01T01:51:55.217Z,5.70
2018-11-01T01:54:23.788Z,5.70
2018-11-01T01:56:52.339Z,5.70
2018-11-01T01:59:20.904Z,5.60
2018-11-01T02:01:49.420Z,5.60
2018-11-01T02:04:17.919Z,5.60
2018-11-01T02:06:46.438Z,5.60
2018-11-01T02:09:14.986Z,5.60
2018-11-01T02:11:44.316Z,5.60
2018-11-01T02:14:12.892Z,5.90
2018-11-01T02:16:42.103Z,6.10
2018-11-01T02:19:10.625Z,6.10
2018-11-01T02:21:39.194Z,6.10
2018-11-01T02:24:07.752Z,6.10
2018-11-01T02:26:36.304Z,6.00
2018-11-01T02:29:05.439Z,6.00
2018-11-01T02:31:33.987Z,6.00
2018-11-01T02:34:02.538Z,6.00
2018-11-01T02:36:31.092Z,6.00
2018-11-01T02:38:59.600Z,5.90
2018-11-01T02:41:28.122Z,5.90
2018-11-01T02:43:56.715Z,5.90
2018-11-01T02:46:25.262Z,5.90
2018-11-01T02:48:53.768Z,5.90
2018-11-01T02:51:22.321Z,5.90
2018-11-01T02:53:50.873Z,5.90
2018-11-01T02:56:19.442Z,5.90
2018-11-01T02:58:47.989Z,6.00
2018-11-01T03:01:18.084Z,6.10
2018-11-01T03:03:48.205Z,6.20
2018-11-01T03:06:17.306Z,6.30
2018-11-01T03:08:46.101Z,6.50
2018-11-01T03:11:14.751Z,6.70
2018-11-01T03:13:43.552Z,6.90
2018-11-01T03:16:12.112Z,7.00
2018-11-01T03:18:40.662Z,7.00
2018-11-01T03:21:09.196Z,6.90
2018-11-01T03:23:37.745Z,6.90
2018-11-01T03:26:06.300Z,6.90
2018-11-01T03:28:34.782Z,6.80
2018-11-01T03:31:03.360Z,6.80
2018-11-01T03:33:31.968Z,6.70
2018-11-01T03:36:00.520Z,6.80
2018-11-01T03:38:30.865Z,6.80
2018-11-01T03:40:59.473Z,6.80
2018-11-01T03:43:28.055Z,6.80
2018-11-01T03:45:56.601Z,6.80
2018-11-01T03:48:25.132Z,6.70
2018-11-01T03:50:53.648Z,6.70
2018-11-01T03:53:22.249Z,6.60
2018-11-01T03:55:50.784Z,6.60
2018-11-01T03:58:19.314Z,6.50
2018-11-01T04:00:47.862Z,6.50
2018-11-01T04:03:16.366Z,6.50
2018-11-01T04:05:44.969Z,6.60
2018-11-01T04:08:13.492Z,6.60
2018-11-01T04:10:42.006Z,6.60
2018-11-01T04:13:10.529Z,6.70
2018-11-01T04:15:39.150Z,6.70
2018-11-01T04:18:07.706Z,6.90
2018-11-01T04:20:36.272Z,7.10
2018-11-01T04:23:04.922Z,7.30
2018-11-01T04:25:33.539Z,7.40
2018-11-01T04:28:02.099Z,7.50
2018-11-01T04:30:30.674Z,7.50
2018-11-01T04:32:59.280Z,7.50
2018-11-01T04:35:27.843Z,7.40
2018-11-01T04:37:56.410Z,7.40
2018-11-01T04:40:24.984Z,7.60
2018-11-01T04:42:53.568Z,7.70
2018-11-01T04:45:22.116Z,8.00
2018-11-01T04:47:50.749Z,8.40
2018-11-01T04:50:19.266Z,8.60
2018-11-01T04:52:49.264Z,8.70
2018-11-01T04:55:18.924Z,8.80
2018-11-01T04:57:47.625Z,9.00
2018-11-01T05:00:16.177Z,8.90
2018-11-01T05:02:45.539Z,8.90
2018-11-01T05:05:14.265Z,9.00
2018-11-01T05:07:42.866Z,9.00
2018-11-01T05:10:12.306Z,9.00
2018-11-01T05:12:41.015Z,9.00
2018-11-01T05:15:09.766Z,9.00
2018-11-01T05:17:38.790Z,9.00
2018-11-01T05:20:09.028Z,9.00
2018-11-01T05:22:37.550Z,9.00
2018-11-01T05:25:06.356Z,9.10
2018-11-01T05:27:34.911Z,9.10
2018-11-01T05:30:03.519Z,9.20
2018-11-01T05:32:32.083Z,9.10
2018-11-01T05:35:00.639Z,9.10
2018-11-01T05:37:29.180Z,9.10
2018-11-01T05:39:57.740Z,9.20
2018-11-01T05:42:27.159Z,9.20
2018-11-01T05:44:55.691Z,9.30
2018-11-01T05:47:24.225Z,9.30
2018-11-01T05:49:53.694Z,9.40
2018-11-01T05:52:22.275Z,9.40
2018-11-01T05:54:51.075Z,9.40
2018-11-01T05:57:19.629Z,9.40
2018-11-01T05:59:48.156Z,9.40
2018-11-01T06:02:21.923Z,9.40
2018-11-01T06:04:50.459Z,9.40
2018-11-01T06:07:23.280Z,9.40
2018-11-01T06:09:51.835Z,9.50
2018-11-01T06:12:20.443Z,9.60
2018-11-01T06:14:48.984Z,9.60
2018-11-01T06:17:17.524Z,9.60
2018-11-01T06:19:46.081Z,9.70
2018-11-01T06:22:14.639Z,9.80
2018-11-01T06:24:43.241Z,9.70
2018-11-01T06:27:11.882Z,9.80
2018-11-01T06:29:40.435Z,9.80
2018-11-01T06:32:09.002Z,9.90
2018-11-01T06:34:43.155Z,9.90
2018-11-01T06:37:11.707Z,10.00
2018-11-01T06:39:40.261Z,9.90
2018-11-01T06:42:08.844Z,9.90
2018-11-01T06:44:37.387Z,9.90
2018-11-01T06:47:06.101Z,9.90
2018-11-01T06:49:34.607Z,9.90
2018-11-01T06:52:03.143Z,9.90
2018-11-01T06:54:31.671Z,9.90
2018-11-01T06:57:00.209Z,9.90
2018-11-01T06:59:28.821Z,9.90
2018-11-01T07:01:57.323Z,9.90
2018-11-01T07:04:25.855Z,10.00
2018-11-01T07:06:54.385Z,10.10
2018-11-01T07:09:22.927Z,10.10
2018-11-01T07:11:51.471Z,10.20
2018-11-01T07:14:19.993Z,10.20
2018-11-01T07:16:48.510Z,10.30
2018-11-01T07:19:17.060Z,10.50
2018-11-01T07:21:45.596Z,10.60
2018-11-01T07:24:14.148Z,10.80
2018-11-01T07:26:42.727Z,10.90
2018-11-01T07:29:11.280Z,11.00
2018-11-01T07:31:39.823Z,11.10
2018-11-01T07:34:08.360Z,11.30
2018-11-01T07:36:36.887Z,11.40
2018-11-01T07:39:07.748Z,11.40
2018-11-01T07:41:36.594Z,11.50
2018-11-01T07:44:05.577Z,11.60
2018-11-01T07:46:34.106Z,11.60
2018-11-01T07:49:02.654Z,11.70
2018-11-01T07:51:31.194Z,11.70
2018-11-01T07:53:59.704Z,11.70
2018-11-01T07:56:28.251Z,11.70
2018-11-01T07:58:56.782Z,11.80
2018-11-01T08:01:25.314Z,11.80
2018-11-01T08:03:53.840Z,11.90
2018-11-01T08:06:22.391Z,12.00
2018-11-01T08:08:50.913Z,12.00
2018-11-01T08:11:19.461Z,12.10
2018-11-01T08:13:48.009Z,12.30
2018-11-01T08:16:16.531Z,12.40
2018-11-01T08:18:45.170Z,12.50
2018-11-01T08:21:13.818Z,12.50
2018-11-01T08:23:42.227Z,12.50
2018-11-01T08:26:10.902Z,12.50
2018-11-01T08:28:39.474Z,12.50
2018-11-01T08:31:07.979Z,12.50
2018-11-01T08:33:36.543Z,12.50
2018-11-01T08:36:05.179Z,12.50
2018-11-01T08:38:33.754Z,12.40
2018-11-01T08:41:02.369Z,12.40
2018-11-01T08:43:30.895Z,12.40
2018-11-01T08:45:59.455Z,12.40
2018-11-01T08:48:27.967Z,12.40
2018-11-01T08:50:56.557Z,12.30
2018-11-01T08:53:25.108Z,12.30
2018-11-01T08:55:53.680Z,12.40
2018-11-01T08:58:22.252Z,12.50
2018-11-01T09:00:50.769Z,12.60
2018-11-01T09:03:19.328Z,12.80
2018-11-01T09:05:47.869Z,12.90
2018-11-01T09:08:16.498Z,13.10
2018-11-01T09:10:45.030Z,13.30
2018-11-01T09:13:13.670Z,13.50
2018-11-01T09:15:42.242Z,13.70
2018-11-01T09:18:10.785Z,13.90
2018-11-01T09:20:39.337Z,14.00
2018-11-01T09:23:07.875Z,14.10
2018-11-01T09:25:36.405Z,14.10
2018-11-01T09:28:05.149Z,14.10
2018-11-01T09:30:33.680Z,14.20
2018-11-01T09:33:02.197Z,14.20
2018-11-01T09:35:30.764Z,14.20
2018-11-01T09:37:59.272Z,14.00
2018-11-01T09:40:27.835Z,14.00
2018-11-01T09:42:56.415Z,14.10
2018-11-01T09:45:24.948Z,14.00
2018-11-01T09:47:53.670Z,14.00
2018-11-01T09:50:22.061Z,13.90
2018-11-01T09:52:50.626Z,13.80
2018-11-01T09:55:19.169Z,13.80
2018-11-01T09:57:47.732Z,13.90
2018-11-01T10:00:16.307Z,13.90
2018-11-01T10:02:46.415Z,14.00
2018-11-01T10:05:15.061Z,14.20
2018-11-01T10:07:43.597Z,14.30
2018-11-01T10:10:13.136Z,14.40
2018-11-01T10:12:41.858Z,14.50
2018-11-01T10:15:10.991Z,14.50
2018-11-01T10:17:40.139Z,14.50
2018-11-01T10:20:10.126Z,14.50
2018-11-01T10:22:38.947Z,14.50
2018-11-01T10:25:08.401Z,14.50
2018-11-01T10:27:37.430Z,14.40
2018-11-01T10:30:09.393Z,14.40
2018-11-01T10:32:37.942Z,14.40
2018-11-01T10:35:06.999Z,14.30
2018-11-01T10:37:35.525Z,14.20
2018-11-01T10:40:04.310Z,14.10
2018-11-01T10:42:32.830Z,14.10
2018-11-01T10:45:01.403Z,14.00
2018-11-01T10:47:30.035Z,14.00
2018-11-01T10:49:58.534Z,14.00
2018-11-01T10:52:27.060Z,14.10
2018-11-01T10:54:55.585Z,14.30
2018-11-01T10:57:24.157Z,14.50
2018-11-01T10:59:52.754Z,14.60
2018-11-01T11:02:24.796Z,14.80
2018-11-01T11:04:53.319Z,14.80
2018-11-01T11:07:21.860Z,14.80
2018-11-01T11:09:50.410Z,14.70
2018-11-01T11:12:18.936Z,14.60
2018-11-01T11:14:47.469Z,14.50
2018-11-01T11:17:16.083Z,14.60
2018-11-01T11:19:44.616Z,14.60
2018-11-01T11:22:13.172Z,14.60
2018-11-01T11:24:41.707Z,14.60
2018-11-01T11:27:10.301Z,14.50
2018-11-01T11:29:38.843Z,14.60
2018-11-01T11:32:07.451Z,14.70
2018-11-01T11:34:36.006Z,14.90
2018-11-01T11:37:04.737Z,15.00
2018-11-01T11:39:33.293Z,15.10
2018-11-01T11:42:01.864Z,15.10
2018-11-01T11:44:30.445Z,14.90
2018-11-01T11:46:59.010Z,14.90
2018-11-01T11:49:27.566Z,14.80
2018-11-01T11:51:56.182Z,14.70
2018-11-01T11:54:24.698Z,14.70
2018-11-01T11:56:53.218Z,14.60
2018-11-01T11:59:21.767Z,14.60
2018-11-01T12:01:50.371Z,14.50
2018-11-01T12:04:18.897Z,14.50
2018-11-01T12:06:47.429Z,14.50
2018-11-01T12:09:15.977Z,14.50
2018-11-01T12:11:44.545Z,14.60
2018-11-01T12:14:13.176Z,14.70
2018-11-01T12:16:41.691Z,14.60
2018-11-01T12:19:10.244Z,14.60
2018-11-01T12:21:38.826Z,14.60
2018-11-01T12:24:07.496Z,14.60
2018-11-01T12:26:36.036Z,14.60
2018-11-01T12:29:04.733Z,14.60
2018-11-01T12:31:33.261Z,14.60
2018-11-01T12:34:01.827Z,14.60
2018-11-01T12:36:30.361Z,14.60
2018-11-01T12:38:58.876Z,14.60
2018-11-01T12:41:27.450Z,14.60
2018-11-01T12:43:55.997Z,14.60
2018-11-01T12:46:24.563Z,14.60
2018-11-01T12:48:53.138Z,14.60
2018-11-01T12:51:21.708Z,14.60
2018-11-01T12:53:50.272Z,14.50
2018-11-01T12:56:18.845Z,14.60
2018-11-01T12:58:47.371Z,14.60
2018-11-01T13:01:15.992Z,14.50
2018-11-01T13:03:44.601Z,14.50
2018-11-01T13:06:13.236Z,14.50
2018-11-01T13:08:41.794Z,14.50
2018-11-01T13:11:10.358Z,14.50
2018-11-01T13:13:38.919Z,14.50
2018-11-01T13:16:07.485Z,14.50
2018-11-01T13:18:36.093Z,14.50
2018-11-01T13:21:04.903Z,14.50
2018-11-01T13:23:33.468Z,14.60
2018-11-01T13:26:02.029Z,14.50
2018-11-01T13:28:30.554Z,14.50
2018-11-01T13:30:59.104Z,14.50
2018-11-01T13:33:27.667Z,14.50
2018-11-01T13:35:56.230Z,14.40
2018-11-01T13:38:24.800Z,14.40
2018-11-01T13:40:53.764Z,14.40
2018-11-01T13:43:21.936Z,14.40
2018-11-01T13:45:50.543Z,14.40
2018-11-01T13:48:19.353Z,14.30
2018-11-01T13:50:47.711Z,14.40
2018-11-01T13:53:16.328Z,14.40
2018-11-01T13:55:44.872Z,14.30
2018-11-01T13:58:13.414Z,14.20
2018-11-01T14:00:41.991Z,14.20
2018-11-01T14:03:10.537Z,14.10
2018-11-01T14:05:39.106Z,14.10
2018-11-01T14:08:07.653Z,14.00
2018-11-01T14:10:36.201Z,14.00
2018-11-01T14:13:04.923Z,14.10
2018-11-01T14:15:33.532Z,14.10
2018-11-01T14:18:02.083Z,14.00
2018-11-01T14:20:30.649Z,14.10
2018-11-01T14:22:59.203Z,14.10
2018-11-01T14:25:27.801Z,14.10
2018-11-01T14:27:56.389Z,14.10
2018-11-01T14:30:24.927Z,14.10
2018-11-01T14:32:53.435Z,14.10
2018-11-01T14:35:21.982Z,14.30
2018-11-01T14:37:51.047Z,14.30
2018-11-01T14:40:19.706Z,14.30
2018-11-01T14:42:48.303Z,14.30
2018-11-01T14:45:17.000Z,14.30
2018-11-01T14:47:45.777Z,14.30
2018-11-01T14:50:14.463Z,14.40
2018-11-01T14:52:44.175Z,14.40
2018-11-01T14:55:12.984Z,14.30
2018-11-01T14:57:42.707Z,14.30
2018-11-01T15:00:10.414Z,14.30
2018-11-01T15:02:39.154Z,14.30
2018-11-01T15:05:08.143Z,14.30
2018-11-01T15:07:36.722Z,14.30
2018-11-01T15:10:06.910Z,14.30
2018-11-01T15:12:35.465Z,14.30
2018-11-01T15:15:04.247Z,14.40
2018-11-01T15:17:32.796Z,14.40
2018-11-01T15:20:01.330Z,14.40
2018-11-01T15:22:30.021Z,14.40
2018-11-01T15:24:58.592Z,14.30
2018-11-01T15:27:27.264Z,14.40
2018-11-01T15:29:55.836Z,14.40
2018-11-01T15:32:29.245Z,14.40
2018-11-01T15:34:58.646Z,14.40
2018-11-01T15:37:27.269Z,14.40
2018-11-01T15:39:56.095Z,14.50
2018-11-01T15:42:24.644Z,14.50
2018-11-01T15:44:53.241Z,14.50
2018-11-01T15:47:21.827Z,14.50
2018-11-01T15:49:50.376Z,14.50
2018-11-01T15:52:18.956Z,14.40
2018-11-01T15:54:47.519Z,14.50
2018-11-01T15:57:16.087Z,14.40
2018-11-01T15:59:44.719Z,14.30
2018-11-01T16:02:13.260Z,14.30
2018-11-01T16:04:41.798Z,14.20
2018-11-01T16:07:10.340Z,14.20
2018-11-01T16:09:38.957Z,14.10
2018-11-01T16:12:07.556Z,14.20
2018-11-01T16:14:36.206Z,14.20
2018-11-01T16:17:04.822Z,14.20
2018-11-01T16:19:33.456Z,14.20
2018-11-01T16:22:01.968Z,14.20
2018-11-01T16:24:30.537Z,14.20
2018-11-01T16:26:59.147Z,14.20
2018-11-01T16:29:27.839Z,14.20
2018-11-01T16:31:56.395Z,14.20
2018-11-01T16:34:25.155Z,14.10
2018-11-01T16:36:53.804Z,14.10
2018-11-01T16:39:22.281Z,14.10
2018-11-01T16:41:51.304Z,14.10
2018-11-01T16:44:19.899Z,14.10
2018-11-01T16:46:48.537Z,14.10
2018-11-01T16:49:17.120Z,14.20
2018-11-01T16:51:45.750Z,14.20
2018-11-01T16:54:14.342Z,14.20
2018-11-01T16:56:42.912Z,14.20
2018-11-01T16:59:11.474Z,14.20
2018-11-01T17:01:40.052Z,14.20
2018-11-01T17:04:09.678Z,14.20
2018-11-01T17:06:38.283Z,14.30
2018-11-01T17:09:08.901Z,14.30
2018-11-01T17:11:37.738Z,14.30
2018-11-01T17:14:06.410Z,14.30
2018-11-01T17:16:35.380Z,14.30
2018-11-01T17:19:04.190Z,14.20
2018-11-01T17:21:32.766Z,14.20
2018-11-01T17:24:01.318Z,14.20
2018-11-01T17:26:29.854Z,14.20
2018-11-01T17:28:58.413Z,14.10
2018-11-01T17:31:26.998Z,14.10
2018-11-01T17:33:55.652Z,14.10
2018-11-01T17:36:24.143Z,14.20
2018-11-01T17:38:52.786Z,14.30
2018-11-01T17:41:21.535Z,14.20
2018-11-01T17:43:50.191Z,14.30
2018-11-01T17:46:18.749Z,14.30
2018-11-01T17:48:47.308Z,14.30
2018-11-01T17:51:15.918Z,14.30
2018-11-01T17:53:44.550Z,14.30
2018-11-01T17:56:13.081Z,14.30
2018-11-01T17:58:41.664Z,14.30
2018-11-01T18:01:10.249Z,14.30
2018-11-01T18:03:38.827Z,14.20
2018-11-01T18:06:07.431Z,14.20
2018-11-01T18:08:37.427Z,14.20
2018-11-01T18:11:05.845Z,14.10
2018-11-01T18:13:34.461Z,14.10
2018-11-01T18:16:03.046Z,14.10
2018-11-01T18:18:31.639Z,14.00
2018-11-01T18:21:00.218Z,14.00
2018-11-01T18:23:28.985Z,14.00
2018-11-01T18:25:57.476Z,14.00
2018-11-01T18:28:26.080Z,14.10
2018-11-01T18:30:54.681Z,14.10
2018-11-01T18:33:23.276Z,14.10
2018-11-01T18:35:51.824Z,14.10
2018-11-01T18:38:20.387Z,14.10
2018-11-01T18:40:48.972Z,14.00
2018-11-01T18:43:17.530Z,14.00
2018-11-01T18:45:46.172Z,13.90
2018-11-01T18:48:14.803Z,13.90
2018-11-01T18:50:43.313Z,13.90
2018-11-01T18:53:11.946Z,13.90
2018-11-01T18:55:40.505Z,13.90
2018-11-01T18:58:09.058Z,13.80
2018-11-01T19:00:37.645Z,13.80
2018-11-01T19:03:06.199Z,13.80
2018-11-01T19:05:37.440Z,13.70
2018-11-01T19:08:06.203Z,13.60
2018-11-01T19:10:34.774Z,13.50
2018-11-01T19:13:04.576Z,13.40
2018-11-01T19:15:33.165Z,13.10
2018-11-01T19:18:01.737Z,13.00
2018-11-01T19:20:30.331Z,12.80
2018-11-01T19:22:58.892Z,12.70
2018-11-01T19:25:27.477Z,12.70
2018-11-01T19:27:56.150Z,12.50
2018-11-01T19:30:24.759Z,12.50
2018-11-01T19:32:53.357Z,12.50
2018-11-01T19:35:21.910Z,12.40
2018-11-01T19:37:54.108Z,12.30
2018-11-01T19:40:22.984Z,12.10
2018-11-01T19:42:51.551Z,12.00
2018-11-01T19:45:20.142Z,12.00
2018-11-01T19:47:48.736Z,11.90
2018-11-01T19:50:17.268Z,11.80
2018-11-01T19:52:45.922Z,11.70
2018-11-01T19:55:14.530Z,11.70
2018-11-01T19:57:43.231Z,11.60
2018-11-01T20:00:13.851Z,11.60
2018-11-01T20:02:42.461Z,11.50
2018-11-01T20:05:11.604Z,11.40
2018-11-01T20:07:40.177Z,11.40
2018-11-01T20:10:10.586Z,11.30
2018-11-01T20:12:39.166Z,11.20
2018-11-01T20:15:07.997Z,11.20
2018-11-01T20:17:36.848Z,11.10
2018-11-01T20:20:07.362Z,11.10
2018-11-01T20:22:36.035Z,11.20
2018-11-01T20:25:05.163Z,11.10
2018-11-01T20:27:36.118Z,11.00
2018-11-01T20:30:06.323Z,11.00
2018-11-01T20:32:34.875Z,10.90
2018-11-01T20:35:03.553Z,10.90
2018-11-01T20:37:32.099Z,10.80
2018-11-01T20:40:00.665Z,10.80
2018-11-01T20:42:29.220Z,10.80
2018-11-01T20:44:57.789Z,10.80
2018-11-01T20:47:26.370Z,10.70
2018-11-01T20:49:54.955Z,10.60
2018-11-01T20:52:23.563Z,10.60
2018-11-01T20:54:52.162Z,10.60
2018-11-01T20:57:20.864Z,10.50
2018-11-01T20:59:49.384Z,10.50
2018-11-01T21:02:18.226Z,10.50
2018-11-01T21:04:46.949Z,10.50
2018-11-01T21:07:15.506Z,10.50
2018-11-01T21:09:44.068Z,10.50
2018-11-01T21:12:12.654Z,10.50
2018-11-01T21:14:41.267Z,10.50
2018-11-01T21:17:09.834Z,10.60
2018-11-01T21:19:38.596Z,10.60
2018-11-01T21:22:12.317Z,10.70
2018-11-01T21:24:40.896Z,10.80
2018-11-01T21:27:09.447Z,10.80
2018-11-01T21:29:40.135Z,10.70
2018-11-01T21:32:09.348Z,10.60
2018-11-01T21:34:38.316Z,10.50
2018-11-01T21:37:07.061Z,10.40
2018-11-01T21:39:35.639Z,10.30
2018-11-01T21:42:04.489Z,10.20
2018-11-01T21:44:33.064Z,10.30
2018-11-01T21:47:01.737Z,10.20
2018-11-01T21:49:30.279Z,10.20
2018-11-01T21:51:58.817Z,10.10
2018-11-01T21:54:27.414Z,10.00
2018-11-01T21:56:56.029Z,9.90
2018-11-01T21:59:24.580Z,9.80
2018-11-01T22:01:53.110Z,9.80
2018-11-01T22:04:21.653Z,9.70
2018-11-01T22:06:50.196Z,9.70
2018-11-01T22:09:18.736Z,9.70
2018-11-01T22:11:47.301Z,9.60
2018-11-01T22:14:15.935Z,9.60
2018-11-01T22:16:44.514Z,9.60
2018-11-01T22:19:13.061Z,9.50
2018-11-01T22:21:41.633Z,9.40
2018-11-01T22:24:10.182Z,9.40
2018-11-01T22:26:38.726Z,9.40
2018-11-01T22:29:07.275Z,9.30
2018-11-01T22:31:35.808Z,9.20
2018-11-01T22:34:04.361Z,9.20
